DLH764 EDDM-VOBL
Flight info
| Callsign | DLH764 |
|---|---|
| Flight time | N/A |
| Altitude | 37000 |
| Route | KIRDI2Q KIRDI DCT BUWOQ DCT OBFEZ DCT STEIN DCT SIRDU DCT GITAS DCT BOKSI DCT TEGRI DCT UDROS DCT CRM/N0490F390 UM11 REBLO P130 MAMED B449 RANAH L750 ZB G202 RK P628 VIKIT/N0484F410 Z8 ABVUL Z9 UUD L518 HIA Q21 LURGI/N0483F400 Q21 TELUV TELUV7E |
| Aircraft | A359/H-SADE2E3GHIJ1J2J3J4J5M1P2RWXYZ/LB1D1 |
Departure
| Time | 2026-05-06 14:17 |
|---|---|
| Airport | Munich Airport (EDDM) |
Arrival
| Time | N/A |
|---|---|
| Airport | Kempegowda International Airport Bengaluru (VOBL) |
| Time | Latitude | Longitude | Altitude | Speed | Heading |
|---|---|---|---|---|---|
| 2026-05-06 13:41 | 48.35319 | 11.79760 | 1483 ft | 0 kts | 83° |
| 2026-05-06 14:03 | 48.35318 | 11.79746 | 1477 ft | 3 kts | 83° |
| 2026-05-06 14:03 | 48.35315 | 11.79716 | 1485 ft | 3 kts | 81° |
| 2026-05-06 14:04 | 48.35312 | 11.79686 | 1476 ft | 3 kts | 82° |
| 2026-05-06 14:04 | 48.35310 | 11.79656 | 1476 ft | 3 kts | 89° |
| 2026-05-06 14:04 | 48.35311 | 11.79628 | 1476 ft | 3 kts | 118° |
| 2026-05-06 14:04 | 48.35318 | 11.79614 | 1476 ft | 1 kts | 175° |
| 2026-05-06 14:05 | 48.35333 | 11.79612 | 1476 ft | 3 kts | 175° |
| 2026-05-06 14:05 | 48.35353 | 11.79610 | 1476 ft | 3 kts | 174° |
| 2026-05-06 14:05 | 48.35373 | 11.79607 | 1477 ft | 3 kts | 174° |
| 2026-05-06 14:05 | 48.35393 | 11.79603 | 1479 ft | 3 kts | 173° |
| 2026-05-06 14:06 | 48.35413 | 11.79600 | 1479 ft | 3 kts | 173° |
| 2026-05-06 14:06 | 48.35433 | 11.79596 | 1476 ft | 3 kts | 172° |
| 2026-05-06 14:06 | 48.35453 | 11.79592 | 1476 ft | 3 kts | 172° |
| 2026-05-06 14:06 | 48.35473 | 11.79588 | 1477 ft | 3 kts | 172° |
| 2026-05-06 14:07 | 48.35490 | 11.79584 | 1476 ft | 1 kts | 173° |
| 2026-05-06 14:07 | 48.35491 | 11.79584 | 1476 ft | 1 kts | 173° |
| 2026-05-06 14:09 | 48.35488 | 11.79585 | 1491 ft | 2 kts | 174° |
| 2026-05-06 14:10 | 48.35441 | 11.79592 | 1484 ft | 11 kts | 174° |
| 2026-05-06 14:10 | 48.35348 | 11.79534 | 1476 ft | 18 kts | 212° |
| 2026-05-06 14:10 | 48.35231 | 11.79493 | 1479 ft | 18 kts | 174° |
| 2026-05-06 14:10 | 48.35106 | 11.79514 | 1488 ft | 18 kts | 173° |
| 2026-05-06 14:11 | 48.34977 | 11.79537 | 1484 ft | 19 kts | 173° |
| 2026-05-06 14:11 | 48.34844 | 11.79559 | 1480 ft | 19 kts | 178° |
| 2026-05-06 14:11 | 48.34781 | 11.79424 | 1479 ft | 17 kts | 263° |
| 2026-05-06 14:11 | 48.34767 | 11.79244 | 1478 ft | 18 kts | 263° |
| 2026-05-06 14:12 | 48.34752 | 11.79054 | 1479 ft | 19 kts | 263° |
| 2026-05-06 14:12 | 48.34736 | 11.78845 | 1478 ft | 21 kts | 263° |
| 2026-05-06 14:12 | 48.34719 | 11.78617 | 1483 ft | 23 kts | 263° |
| 2026-05-06 14:12 | 48.34700 | 11.78372 | 1477 ft | 24 kts | 263° |
| 2026-05-06 14:13 | 48.34679 | 11.78112 | 1479 ft | 26 kts | 263° |
| 2026-05-06 14:13 | 48.34658 | 11.77839 | 1491 ft | 27 kts | 263° |
| 2026-05-06 14:13 | 48.34636 | 11.77555 | 1477 ft | 28 kts | 263° |
| 2026-05-06 14:13 | 48.34614 | 11.77262 | 1488 ft | 29 kts | 263° |
| 2026-05-06 14:14 | 48.34593 | 11.76980 | 1481 ft | 23 kts | 263° |
| 2026-05-06 14:14 | 48.34574 | 11.76737 | 1483 ft | 24 kts | 263° |
| 2026-05-06 14:14 | 48.34554 | 11.76478 | 1481 ft | 26 kts | 263° |
| 2026-05-06 14:14 | 48.34533 | 11.76206 | 1486 ft | 27 kts | 263° |
| 2026-05-06 14:15 | 48.34511 | 11.75922 | 1479 ft | 28 kts | 263° |
| 2026-05-06 14:15 | 48.34488 | 11.75625 | 1479 ft | 29 kts | 263° |
| 2026-05-06 14:15 | 48.34469 | 11.75376 | 1489 ft | 20 kts | 263° |
| 2026-05-06 14:15 | 48.34452 | 11.75154 | 1488 ft | 22 kts | 263° |
| 2026-05-06 14:16 | 48.34342 | 11.75072 | 1484 ft | 21 kts | 173° |
| 2026-05-06 14:16 | 48.34218 | 11.75094 | 1484 ft | 0 kts | 173° |
| 2026-05-06 14:16 | 48.34174 | 11.75106 | 1478 ft | 17 kts | 163° |
| 2026-05-06 14:16 | 48.34087 | 11.75271 | 1485 ft | 21 kts | 97° |
| 2026-05-06 14:17 | 48.34104 | 11.75575 | 1491 ft | 53 kts | 83° |
| 2026-05-06 14:17 | 48.34174 | 11.76470 | 1486 ft | 118 kts | 83° |
| 2026-05-06 14:17 | 48.34289 | 11.77961 | 1489 ft | 172 kts | 83° |
| 2026-05-06 14:17 | 48.34411 | 11.79804 | 2151 ft | 172 kts | 82° |
| 2026-05-06 14:18 | 48.34507 | 11.81592 | 3013 ft | 171 kts | 86° |
| 2026-05-06 14:18 | 48.34621 | 11.83396 | 3641 ft | 178 kts | 83° |
| 2026-05-06 14:18 | 48.34790 | 11.85330 | 3919 ft | 195 kts | 83° |
| 2026-05-06 14:18 | 48.34974 | 11.87457 | 4108 ft | 217 kts | 83° |
| 2026-05-06 14:19 | 48.35169 | 11.89816 | 4364 ft | 235 kts | 83° |
| 2026-05-06 14:19 | 48.35326 | 11.92289 | 4903 ft | 240 kts | 90° |
| 2026-05-06 14:19 | 48.35009 | 11.94774 | 5372 ft | 250 kts | 110° |
| 2026-05-06 14:19 | 48.34321 | 11.97251 | 5791 ft | 262 kts | 116° |
| 2026-05-06 14:20 | 48.33555 | 11.99770 | 6413 ft | 268 kts | 116° |
| 2026-05-06 14:20 | 48.32775 | 12.02349 | 7005 ft | 274 kts | 116° |
| 2026-05-06 14:20 | 48.31988 | 12.04986 | 7652 ft | 279 kts | 116° |
| 2026-05-06 14:20 | 48.31195 | 12.07656 | 8370 ft | 281 kts | 117° |
| 2026-05-06 14:21 | 48.30394 | 12.10361 | 9062 ft | 285 kts | 118° |
| 2026-05-06 14:21 | 48.29581 | 12.13109 | 9732 ft | 290 kts | 119° |
| 2026-05-06 14:21 | 48.28756 | 12.15899 | 10387 ft | 294 kts | 119° |
| 2026-05-06 14:21 | 48.27921 | 12.18719 | 11054 ft | 298 kts | 119° |
| 2026-05-06 14:22 | 48.27074 | 12.21577 | 11678 ft | 302 kts | 119° |
| 2026-05-06 14:22 | 48.26217 | 12.24472 | 12351 ft | 305 kts | 119° |
| 2026-05-06 14:22 | 48.25348 | 12.27400 | 13011 ft | 309 kts | 120° |
| 2026-05-06 14:22 | 48.24469 | 12.30357 | 13650 ft | 312 kts | 120° |
| 2026-05-06 14:23 | 48.23673 | 12.33420 | 14194 ft | 321 kts | 110° |
| 2026-05-06 14:23 | 48.23371 | 12.36812 | 14588 ft | 337 kts | 97° |
| 2026-05-06 14:23 | 48.23316 | 12.40414 | 14817 ft | 354 kts | 95° |
| 2026-05-06 14:23 | 48.23295 | 12.44182 | 15047 ft | 368 kts | 95° |
| 2026-05-06 14:24 | 48.23265 | 12.48097 | 15274 ft | 383 kts | 95° |
| 2026-05-06 14:24 | 48.23225 | 12.52157 | 15532 ft | 395 kts | 95° |
| 2026-05-06 14:24 | 48.23141 | 12.56303 | 15994 ft | 399 kts | 99° |
| 2026-05-06 14:24 | 48.22834 | 12.60441 | 16553 ft | 400 kts | 102° |
| 2026-05-06 14:25 | 48.22447 | 12.64591 | 17127 ft | 403 kts | 103° |
| 2026-05-06 14:25 | 48.22047 | 12.68771 | 17689 ft | 407 kts | 103° |
| 2026-05-06 14:25 | 48.21645 | 12.72984 | 18239 ft | 410 kts | 103° |
| 2026-05-06 14:25 | 48.21238 | 12.77236 | 18732 ft | 414 kts | 103° |
| 2026-05-06 14:26 | 48.20876 | 12.81536 | 19237 ft | 420 kts | 99° |
| 2026-05-06 14:26 | 48.20746 | 12.85937 | 19736 ft | 426 kts | 96° |
| 2026-05-06 14:26 | 48.20757 | 12.90395 | 20270 ft | 430 kts | 94° |
| 2026-05-06 14:26 | 48.20838 | 12.94901 | 20732 ft | 435 kts | 93° |
| 2026-05-06 14:27 | 48.20942 | 12.99456 | 21206 ft | 439 kts | 93° |
| 2026-05-06 14:27 | 48.21044 | 13.04044 | 21722 ft | 442 kts | 93° |
| 2026-05-06 14:27 | 48.21136 | 13.08670 | 22223 ft | 445 kts | 93° |
| 2026-05-06 14:27 | 48.21215 | 13.13322 | 22735 ft | 448 kts | 94° |
| 2026-05-06 14:28 | 48.21283 | 13.18017 | 23221 ft | 452 kts | 94° |
| 2026-05-06 14:28 | 48.21344 | 13.22745 | 23616 ft | 456 kts | 94° |
| 2026-05-06 14:28 | 48.21401 | 13.27514 | 24012 ft | 460 kts | 94° |
| 2026-05-06 14:28 | 48.21455 | 13.32325 | 24425 ft | 463 kts | 94° |
| 2026-05-06 14:29 | 48.21509 | 13.37165 | 24824 ft | 466 kts | 94° |
| 2026-05-06 14:29 | 48.21562 | 13.42041 | 25202 ft | 470 kts | 94° |
| 2026-05-06 14:29 | 48.21613 | 13.46962 | 25564 ft | 474 kts | 94° |
| 2026-05-06 14:29 | 48.21662 | 13.51920 | 25966 ft | 477 kts | 94° |
| 2026-05-06 14:30 | 48.21710 | 13.56910 | 26367 ft | 480 kts | 94° |
| 2026-05-06 14:30 | 48.21756 | 13.61929 | 26770 ft | 483 kts | 94° |
| 2026-05-06 14:30 | 48.21800 | 13.66980 | 27148 ft | 486 kts | 94° |
| 2026-05-06 14:30 | 48.21842 | 13.72067 | 27526 ft | 490 kts | 94° |
| 2026-05-06 14:31 | 48.21883 | 13.77194 | 27909 ft | 493 kts | 94° |
| 2026-05-06 14:31 | 48.21922 | 13.82340 | 28252 ft | 496 kts | 94° |
| 2026-05-06 14:31 | 48.21958 | 13.87524 | 28644 ft | 498 kts | 94° |
| 2026-05-06 14:31 | 48.21972 | 13.92724 | 28997 ft | 499 kts | 96° |
| 2026-05-06 14:32 | 48.21634 | 13.97886 | 29316 ft | 496 kts | 106° |
| 2026-05-06 14:32 | 48.20762 | 14.02851 | 29661 ft | 490 kts | 116° |
| 2026-05-06 14:32 | 48.19547 | 14.07623 | 29976 ft | 490 kts | 118° |
| 2026-05-06 14:32 | 48.18224 | 14.12340 | 30258 ft | 491 kts | 120° |
| 2026-05-06 14:33 | 48.16844 | 14.17034 | 30543 ft | 493 kts | 121° |
| 2026-05-06 14:33 | 48.15439 | 14.21726 | 30820 ft | 495 kts | 121° |
| 2026-05-06 14:33 | 48.14025 | 14.26436 | 31052 ft | 497 kts | 121° |
| 2026-05-06 14:33 | 48.12610 | 14.31169 | 31331 ft | 499 kts | 121° |
| 2026-05-06 14:34 | 48.11197 | 14.35920 | 31595 ft | 501 kts | 121° |
| 2026-05-06 14:34 | 48.09782 | 14.40689 | 31811 ft | 503 kts | 121° |
| 2026-05-06 14:34 | 48.08363 | 14.45478 | 32069 ft | 505 kts | 121° |
| 2026-05-06 14:34 | 48.06937 | 14.50287 | 32322 ft | 506 kts | 121° |
| 2026-05-06 14:35 | 48.05507 | 14.55104 | 32536 ft | 508 kts | 121° |
| 2026-05-06 14:35 | 48.04076 | 14.59919 | 32888 ft | 506 kts | 121° |
| 2026-05-06 14:35 | 48.02643 | 14.64731 | 33100 ft | 509 kts | 121° |
| 2026-05-06 14:35 | 48.01196 | 14.69570 | 33251 ft | 511 kts | 121° |
| 2026-05-06 14:36 | 47.99745 | 14.74418 | 33579 ft | 510 kts | 121° |
| 2026-05-06 14:36 | 47.98298 | 14.79247 | 33892 ft | 510 kts | 121° |
| 2026-05-06 14:36 | 47.96849 | 14.84072 | 34139 ft | 509 kts | 121° |
| 2026-05-06 14:36 | 47.95408 | 14.88862 | 34427 ft | 508 kts | 121° |
| 2026-05-06 14:37 | 47.93961 | 14.93660 | 34746 ft | 506 kts | 121° |
| 2026-05-06 14:37 | 47.92521 | 14.98430 | 35021 ft | 504 kts | 121° |
| 2026-05-06 14:37 | 47.91074 | 15.03200 | 35149 ft | 506 kts | 120° |
| 2026-05-06 14:37 | 47.89618 | 15.07990 | 35288 ft | 508 kts | 120° |
| 2026-05-06 14:38 | 47.88159 | 15.12782 | 35523 ft | 508 kts | 120° |
| 2026-05-06 14:38 | 47.86704 | 15.17561 | 35821 ft | 505 kts | 120° |
| 2026-05-06 14:38 | 47.85255 | 15.22310 | 36122 ft | 503 kts | 120° |
| 2026-05-06 14:38 | 47.83811 | 15.27040 | 36357 ft | 502 kts | 120° |
| 2026-05-06 14:39 | 47.82365 | 15.31761 | 36552 ft | 501 kts | 120° |
| 2026-05-06 14:39 | 47.80917 | 15.36479 | 36714 ft | 501 kts | 120° |
| 2026-05-06 14:39 | 47.78038 | 15.45970 | 36782 ft | 505 kts | 119° |
| 2026-05-06 14:40 | 47.75166 | 15.55480 | 36799 ft | 504 kts | 119° |
| 2026-05-06 14:40 | 47.72286 | 15.64972 | 36789 ft | 503 kts | 119° |
| 2026-05-06 14:41 | 47.69400 | 15.74420 | 36791 ft | 503 kts | 120° |
| 2026-05-06 14:41 | 47.66493 | 15.83891 | 36802 ft | 506 kts | 120° |
| 2026-05-06 14:42 | 47.63570 | 15.93390 | 36794 ft | 506 kts | 120° |
| 2026-05-06 14:42 | 47.60640 | 16.02873 | 36811 ft | 506 kts | 120° |
| 2026-05-06 14:43 | 47.57703 | 16.12335 | 36799 ft | 505 kts | 120° |
| 2026-05-06 14:43 | 47.54751 | 16.21812 | 36808 ft | 508 kts | 120° |
| 2026-05-06 14:44 | 47.52289 | 16.29701 | 36820 ft | 508 kts | 120° |
| 2026-05-06 14:45 | 47.47828 | 16.43924 | 36821 ft | 508 kts | 120° |
| 2026-05-06 14:45 | 47.44844 | 16.53391 | 36808 ft | 508 kts | 120° |
| 2026-05-06 14:46 | 47.42090 | 16.63013 | 36833 ft | 510 kts | 115° |
| 2026-05-06 14:46 | 47.39727 | 16.72882 | 36832 ft | 510 kts | 114° |
| 2026-05-06 14:47 | 47.37420 | 16.82783 | 36834 ft | 510 kts | 114° |
| 2026-05-06 14:47 | 47.35105 | 16.92686 | 36835 ft | 511 kts | 113° |
| 2026-05-06 14:48 | 47.32769 | 17.02595 | 36854 ft | 512 kts | 114° |
| 2026-05-06 14:48 | 47.30421 | 17.12497 | 36857 ft | 512 kts | 114° |
| 2026-05-06 14:49 | 47.28062 | 17.22391 | 36832 ft | 512 kts | 114° |
| 2026-05-06 14:49 | 47.25694 | 17.32278 | 36857 ft | 513 kts | 114° |
| 2026-05-06 14:50 | 47.23348 | 17.42200 | 36857 ft | 513 kts | 113° |
| 2026-05-06 14:50 | 47.21031 | 17.52134 | 36860 ft | 514 kts | 113° |
| 2026-05-06 14:51 | 47.18703 | 17.62061 | 36850 ft | 513 kts | 112° |
| 2026-05-06 14:51 | 47.16358 | 17.71985 | 36870 ft | 514 kts | 112° |
| 2026-05-06 14:52 | 47.14001 | 17.81907 | 36886 ft | 514 kts | 113° |
| 2026-05-06 14:52 | 47.11636 | 17.91810 | 36895 ft | 514 kts | 113° |
| 2026-05-06 14:53 | 47.09262 | 18.01712 | 36890 ft | 514 kts | 112° |
| 2026-05-06 14:53 | 47.06880 | 18.11600 | 36897 ft | 514 kts | 112° |
| 2026-05-06 14:54 | 47.04492 | 18.21478 | 36901 ft | 514 kts | 113° |
| 2026-05-06 14:54 | 47.02078 | 18.31336 | 36900 ft | 514 kts | 113° |
| 2026-05-06 14:55 | 46.99648 | 18.41178 | 36899 ft | 514 kts | 112° |
| 2026-05-06 14:55 | 46.97214 | 18.51009 | 36898 ft | 514 kts | 113° |
| 2026-05-06 14:56 | 46.94773 | 18.60839 | 36897 ft | 514 kts | 113° |
| 2026-05-06 14:56 | 46.92326 | 18.70651 | 36897 ft | 513 kts | 113° |
| 2026-05-06 14:57 | 46.89868 | 18.80466 | 36892 ft | 514 kts | 112° |
| 2026-05-06 14:57 | 46.87401 | 18.90277 | 36892 ft | 514 kts | 112° |
| 2026-05-06 14:58 | 46.84924 | 19.00085 | 36889 ft | 515 kts | 113° |
| 2026-05-06 14:58 | 46.82438 | 19.09885 | 36881 ft | 514 kts | 112° |
| 2026-05-06 14:59 | 46.79941 | 19.19684 | 36890 ft | 516 kts | 113° |
| 2026-05-06 14:59 | 46.77431 | 19.29493 | 36889 ft | 516 kts | 113° |
| 2026-05-06 15:00 | 46.74912 | 19.39296 | 36894 ft | 516 kts | 113° |
| 2026-05-06 15:00 | 46.72385 | 19.49090 | 36899 ft | 516 kts | 113° |
| 2026-05-06 15:01 | 46.69843 | 19.58897 | 36883 ft | 518 kts | 113° |
| 2026-05-06 15:01 | 46.67289 | 19.68709 | 36902 ft | 518 kts | 113° |
| 2026-05-06 15:02 | 46.64728 | 19.78510 | 36910 ft | 518 kts | 113° |
| 2026-05-06 15:02 | 46.62132 | 19.88288 | 36899 ft | 518 kts | 114° |
| 2026-05-06 15:03 | 46.59351 | 19.97960 | 36905 ft | 518 kts | 115° |
| 2026-05-06 15:03 | 46.56529 | 20.07602 | 36905 ft | 518 kts | 115° |
| 2026-05-06 15:04 | 46.53723 | 20.17253 | 36909 ft | 518 kts | 115° |
| 2026-05-06 15:04 | 46.50927 | 20.26900 | 36908 ft | 518 kts | 115° |
| 2026-05-06 15:05 | 46.48127 | 20.36542 | 36916 ft | 518 kts | 115° |
| 2026-05-06 15:05 | 46.45338 | 20.46105 | 36915 ft | 518 kts | 115° |
| 2026-05-06 15:06 | 46.42520 | 20.55727 | 36908 ft | 519 kts | 115° |
| 2026-05-06 15:06 | 46.39691 | 20.65347 | 36914 ft | 519 kts | 115° |
| 2026-05-06 15:07 | 46.36851 | 20.74967 | 36912 ft | 519 kts | 115° |
| 2026-05-06 15:07 | 46.34004 | 20.84575 | 36924 ft | 519 kts | 115° |
| 2026-05-06 15:08 | 46.31145 | 20.94181 | 36928 ft | 521 kts | 115° |
| 2026-05-06 15:08 | 46.28271 | 21.03807 | 36932 ft | 522 kts | 115° |
| 2026-05-06 15:09 | 46.25383 | 21.13430 | 36938 ft | 522 kts | 115° |
| 2026-05-06 15:09 | 46.22426 | 21.22993 | 36931 ft | 521 kts | 116° |
| 2026-05-06 15:10 | 46.19431 | 21.32533 | 36931 ft | 522 kts | 116° |
| 2026-05-06 15:10 | 46.16436 | 21.42072 | 36938 ft | 522 kts | 116° |
| 2026-05-06 15:11 | 46.13442 | 21.51603 | 36940 ft | 522 kts | 116° |
| 2026-05-06 15:11 | 46.10444 | 21.61123 | 36937 ft | 521 kts | 116° |
| 2026-05-06 15:12 | 46.07443 | 21.70617 | 36947 ft | 521 kts | 116° |
| 2026-05-06 15:12 | 46.04436 | 21.80090 | 36947 ft | 521 kts | 116° |
| 2026-05-06 15:13 | 46.01417 | 21.89568 | 36943 ft | 521 kts | 116° |
| 2026-05-06 15:13 | 45.98391 | 21.99035 | 36947 ft | 521 kts | 116° |
| 2026-05-06 15:14 | 45.95353 | 22.08502 | 36947 ft | 521 kts | 116° |
| 2026-05-06 15:14 | 45.92307 | 22.17958 | 36949 ft | 522 kts | 116° |
| 2026-05-06 15:15 | 45.89253 | 22.27408 | 36950 ft | 521 kts | 116° |
| 2026-05-06 15:15 | 45.86198 | 22.36826 | 36955 ft | 520 kts | 116° |
| 2026-05-06 15:16 | 45.83137 | 22.46225 | 36955 ft | 520 kts | 116° |
| 2026-05-06 15:16 | 45.80072 | 22.55604 | 36953 ft | 520 kts | 116° |
| 2026-05-06 15:17 | 45.77001 | 22.64970 | 36954 ft | 519 kts | 116° |
| 2026-05-06 15:17 | 45.73928 | 22.74304 | 36958 ft | 518 kts | 116° |
| 2026-05-06 15:18 | 45.70851 | 22.83622 | 36957 ft | 518 kts | 116° |
| 2026-05-06 15:18 | 45.67766 | 22.92928 | 36957 ft | 518 kts | 115° |
| 2026-05-06 15:19 | 45.64676 | 23.02217 | 36957 ft | 517 kts | 115° |
| 2026-05-06 15:19 | 45.61585 | 23.11475 | 36960 ft | 516 kts | 116° |
| 2026-05-06 15:20 | 45.58489 | 23.20715 | 36962 ft | 516 kts | 116° |
| 2026-05-06 15:20 | 45.55384 | 23.29952 | 36976 ft | 515 kts | 115° |
| 2026-05-06 15:21 | 45.52279 | 23.39155 | 36984 ft | 515 kts | 115° |
| 2026-05-06 15:21 | 45.49169 | 23.48338 | 36988 ft | 514 kts | 115° |
| 2026-05-06 15:22 | 45.46053 | 23.57515 | 36990 ft | 514 kts | 116° |
| 2026-05-06 15:22 | 45.42928 | 23.66682 | 36995 ft | 515 kts | 116° |
| 2026-05-06 15:23 | 45.39795 | 23.75837 | 36992 ft | 514 kts | 116° |
| 2026-05-06 15:23 | 45.36655 | 23.84985 | 36990 ft | 514 kts | 116° |
| 2026-05-06 15:24 | 45.33510 | 23.94113 | 36994 ft | 514 kts | 115° |
| 2026-05-06 15:24 | 45.30363 | 24.03218 | 36988 ft | 513 kts | 115° |
| 2026-05-06 15:25 | 45.27213 | 24.12304 | 36988 ft | 513 kts | 116° |
| 2026-05-06 15:25 | 45.24057 | 24.21375 | 36990 ft | 512 kts | 116° |
| 2026-05-06 15:26 | 45.21428 | 24.28904 | 36976 ft | 513 kts | 115° |
| 2026-05-06 15:26 | 45.18257 | 24.37960 | 36979 ft | 512 kts | 116° |
| 2026-05-06 15:27 | 45.15081 | 24.47000 | 36980 ft | 512 kts | 116° |
| 2026-05-06 15:27 | 45.11900 | 24.56027 | 36983 ft | 512 kts | 115° |
| 2026-05-06 15:28 | 45.08708 | 24.65052 | 36983 ft | 513 kts | 115° |
| 2026-05-06 15:28 | 45.05505 | 24.74077 | 36988 ft | 513 kts | 115° |
| 2026-05-06 15:29 | 45.02296 | 24.83090 | 36986 ft | 513 kts | 116° |
| 2026-05-06 15:29 | 44.99075 | 24.92104 | 36988 ft | 514 kts | 115° |
| 2026-05-06 15:30 | 44.95826 | 25.01168 | 36988 ft | 514 kts | 115° |
| 2026-05-06 15:30 | 44.92590 | 25.10168 | 36993 ft | 514 kts | 115° |
| 2026-05-06 15:31 | 44.89369 | 25.19094 | 36998 ft | 514 kts | 115° |
| 2026-05-06 15:31 | 44.86119 | 25.28072 | 36994 ft | 514 kts | 115° |
| 2026-05-06 15:32 | 44.81235 | 25.41511 | 36993 ft | 514 kts | 115° |
| 2026-05-06 15:32 | 44.77968 | 25.50459 | 36995 ft | 514 kts | 115° |
| 2026-05-06 15:33 | 44.74696 | 25.59395 | 36994 ft | 513 kts | 115° |
| 2026-05-06 15:33 | 44.71420 | 25.68312 | 36996 ft | 513 kts | 115° |
| 2026-05-06 15:34 | 44.68139 | 25.77217 | 37005 ft | 513 kts | 115° |
| 2026-05-06 15:34 | 44.64849 | 25.86111 | 37013 ft | 513 kts | 115° |
| 2026-05-06 15:35 | 44.61556 | 25.94986 | 37336 ft | 511 kts | 115° |
| 2026-05-06 15:35 | 44.59913 | 25.99404 | 37576 ft | 510 kts | 115° |
| 2026-05-06 15:35 | 44.58273 | 26.03807 | 37796 ft | 509 kts | 115° |
| 2026-05-06 15:36 | 44.56636 | 26.08196 | 37972 ft | 508 kts | 115° |
| 2026-05-06 15:36 | 44.54997 | 26.12581 | 38184 ft | 507 kts | 115° |
| 2026-05-06 15:36 | 44.53360 | 26.16956 | 38325 ft | 506 kts | 115° |
| 2026-05-06 15:36 | 44.51723 | 26.21325 | 38476 ft | 506 kts | 116° |
| 2026-05-06 15:37 | 44.50085 | 26.25687 | 38615 ft | 506 kts | 116° |
| 2026-05-06 15:37 | 44.48444 | 26.30053 | 38732 ft | 506 kts | 116° |
| 2026-05-06 15:37 | 44.46804 | 26.34409 | 38834 ft | 506 kts | 116° |
| 2026-05-06 15:37 | 44.45162 | 26.38762 | 38933 ft | 506 kts | 116° |
| 2026-05-06 15:38 | 44.41867 | 26.47478 | 39012 ft | 509 kts | 116° |
| 2026-05-06 15:38 | 44.38542 | 26.56246 | 39015 ft | 511 kts | 116° |
| 2026-05-06 15:39 | 44.35207 | 26.65010 | 39018 ft | 510 kts | 116° |
| 2026-05-06 15:39 | 44.31869 | 26.73755 | 39018 ft | 510 kts | 116° |
| 2026-05-06 15:40 | 44.28525 | 26.82489 | 39018 ft | 510 kts | 116° |
| 2026-05-06 15:40 | 44.25175 | 26.91211 | 39018 ft | 510 kts | 116° |
| 2026-05-06 15:41 | 44.21816 | 26.99931 | 39024 ft | 510 kts | 116° |
| 2026-05-06 15:41 | 44.18454 | 27.08631 | 39022 ft | 510 kts | 116° |
| 2026-05-06 15:42 | 44.15084 | 27.17324 | 39028 ft | 510 kts | 116° |
| 2026-05-06 15:42 | 44.11710 | 27.26001 | 39031 ft | 510 kts | 116° |
| 2026-05-06 15:43 | 44.08329 | 27.34667 | 39034 ft | 510 kts | 117° |
| 2026-05-06 15:43 | 44.04942 | 27.43324 | 39035 ft | 510 kts | 117° |
| 2026-05-06 15:44 | 44.01548 | 27.51971 | 39037 ft | 509 kts | 117° |
| 2026-05-06 15:44 | 43.98150 | 27.60603 | 39048 ft | 509 kts | 117° |
| 2026-05-06 15:45 | 43.94749 | 27.69217 | 39044 ft | 509 kts | 117° |
| 2026-05-06 15:45 | 43.91342 | 27.77819 | 39048 ft | 509 kts | 117° |
| 2026-05-06 15:46 | 43.87929 | 27.86410 | 39051 ft | 509 kts | 117° |
| 2026-05-06 15:46 | 43.84533 | 27.94933 | 39051 ft | 508 kts | 117° |
| 2026-05-06 15:47 | 43.81110 | 28.03497 | 39051 ft | 508 kts | 117° |
| 2026-05-06 15:47 | 43.77679 | 28.12055 | 39057 ft | 509 kts | 117° |
| 2026-05-06 15:48 | 43.74237 | 28.20614 | 39067 ft | 509 kts | 117° |
| 2026-05-06 15:48 | 43.70790 | 28.29162 | 39063 ft | 509 kts | 117° |
| 2026-05-06 15:49 | 43.67336 | 28.37701 | 39076 ft | 509 kts | 117° |
| 2026-05-06 15:49 | 43.63878 | 28.46224 | 39081 ft | 509 kts | 117° |
| 2026-05-06 15:50 | 43.60413 | 28.54738 | 39092 ft | 508 kts | 117° |
| 2026-05-06 15:50 | 43.56944 | 28.63236 | 39093 ft | 508 kts | 117° |
| 2026-05-06 15:51 | 43.53473 | 28.71717 | 39096 ft | 508 kts | 117° |
| 2026-05-06 15:51 | 43.49993 | 28.80192 | 39097 ft | 508 kts | 117° |
| 2026-05-06 15:52 | 43.46515 | 28.88638 | 39103 ft | 507 kts | 117° |
| 2026-05-06 15:52 | 43.43033 | 28.97069 | 39101 ft | 507 kts | 118° |
| 2026-05-06 15:53 | 43.39546 | 29.05488 | 39110 ft | 507 kts | 118° |